createdAt,value
2022-10-22T00:04:07.009Z,13.50
2022-10-22T00:06:35.679Z,12.68
2022-10-22T00:09:04.757Z,14.60
2022-10-22T00:11:31.871Z,16.52
2022-10-22T00:16:27.597Z,18.00
2022-10-22T00:18:54.750Z,16.42
2022-10-22T00:23:49.036Z,16.98
2022-10-22T00:26:16.618Z,14.23
2022-10-22T00:28:45.923Z,16.88
2022-10-22T00:31:13.363Z,18.05
2022-10-22T00:33:40.559Z,16.05
2022-10-22T00:36:09.943Z,14.18
2022-10-22T00:38:37.452Z,17.10
2022-10-22T00:41:04.772Z,18.77
2022-10-22T00:43:32.097Z,15.48
2022-10-22T00:45:59.134Z,19.05
2022-10-22T00:51:20.010Z,16.63
2022-10-22T00:53:56.162Z,15.45
2022-10-22T00:56:24.892Z,15.98
2022-10-22T00:59:00.779Z,15.75
2022-10-22T01:01:31.939Z,16.15
2022-10-22T01:04:00.473Z,15.00
2022-10-22T01:06:34.435Z,16.90
2022-10-22T01:09:47.534Z,15.30
2022-10-22T01:12:50.539Z,15.75
2022-10-22T01:15:59.656Z,17.77
2022-10-22T01:19:17.685Z,19.40
2022-10-22T01:24:32.481Z,16.98
2022-10-22T01:27:21.071Z,14.40
2022-10-22T01:30:15.788Z,14.25
2022-10-22T01:33:07.381Z,17.48
2022-10-22T01:35:45.637Z,16.40
2022-10-22T01:38:21.906Z,15.93
2022-10-22T01:40:51.181Z,17.58
2022-10-22T01:43:18.761Z,13.35
2022-10-22T01:46:02.701Z,15.98
2022-10-22T01:49:31.023Z,17.67
2022-10-22T01:52:10.297Z,14.07
2022-10-22T01:55:06.267Z,17.17
2022-10-22T01:58:07.893Z,16.45
2022-10-22T02:00:46.268Z,15.65
2022-10-22T02:03:47.029Z,14.65
2022-10-22T02:06:55.793Z,18.45
2022-10-22T02:09:27.044Z,19.38
2022-10-22T02:14:36.871Z,17.52
2022-10-22T02:17:08.530Z,18.00
2022-10-22T02:19:47.584Z,14.90
2022-10-22T02:22:20.197Z,16.70
2022-10-22T02:24:49.385Z,17.30
2022-10-22T02:27:47.907Z,17.98
2022-10-22T02:30:20.257Z,18.70
2022-10-22T02:33:12.900Z,15.18
2022-10-22T02:35:43.853Z,16.15
2022-10-22T02:38:13.879Z,17.90
2022-10-22T02:40:45.600Z,15.75
2022-10-22T02:43:12.797Z,15.98
2022-10-22T02:45:40.492Z,14.15
2022-10-22T02:48:07.950Z,13.95
2022-10-22T02:50:35.565Z,14.13
2022-10-22T02:55:33.390Z,14.68
2022-10-22T02:58:03.702Z,15.07
2022-10-22T03:00:31.391Z,14.98
2022-10-22T03:02:58.495Z,17.65
2022-10-22T03:07:53.274Z,15.38
2022-10-22T03:10:20.718Z,12.80
2022-10-22T03:12:58.581Z,12.27
2022-10-22T03:18:01.675Z,11.50
2022-10-22T03:20:29.174Z,10.50
2022-10-22T03:23:01.275Z,10.70
2022-10-22T03:25:31.204Z,12.85
2022-10-22T03:28:07.667Z,9.80
2022-10-22T03:30:34.733Z,11.73
2022-10-22T03:35:30.155Z,12.32
2022-10-22T03:38:01.806Z,13.32
2022-10-22T03:40:29.896Z,12.20
2022-10-22T03:42:59.101Z,10.95
2022-10-22T03:45:29.347Z,12.57
2022-10-22T03:47:56.536Z,12.32
2022-10-22T03:52:53.846Z,12.10
2022-10-22T03:55:21.161Z,13.45
2022-10-22T03:57:51.356Z,15.43
2022-10-22T04:00:19.817Z,14.60
2022-10-22T04:02:47.149Z,16.25
2022-10-22T04:07:48.765Z,12.23
2022-10-22T04:10:23.314Z,11.80
2022-10-22T04:12:51.565Z,9.82
2022-10-22T04:15:19.078Z,12.18
2022-10-22T04:17:48.539Z,12.13
2022-10-22T04:20:16.041Z,12.70
2022-10-22T04:22:43.484Z,13.80
2022-10-22T04:25:14.121Z,10.55
2022-10-22T04:27:41.334Z,12.43
2022-10-22T04:30:12.946Z,11.95
2022-10-22T04:32:40.018Z,10.60
2022-10-22T04:37:37.471Z,10.75
2022-10-22T04:40:05.998Z,11.13
2022-10-22T04:42:33.095Z,9.88
2022-10-22T04:47:27.219Z,9.43
2022-10-22T04:49:56.109Z,9.70
2022-10-22T04:52:23.190Z,10.75
2022-10-22T04:57:17.223Z,9.88
2022-10-22T05:02:11.372Z,14.77
2022-10-22T05:04:38.544Z,15.07
2022-10-22T05:07:06.127Z,12.32
2022-10-22T05:09:34.540Z,12.23
2022-10-22T05:12:01.863Z,10.30
2022-10-22T05:14:28.897Z,8.73
2022-10-22T05:19:31.448Z,12.88
2022-10-22T05:22:02.707Z,10.20
2022-10-22T05:24:34.896Z,9.80
2022-10-22T05:27:04.823Z,11.00
2022-10-22T05:29:41.024Z,9.68
2022-10-22T05:32:10.550Z,11.15
2022-10-22T05:34:37.831Z,12.23
2022-10-22T05:37:04.930Z,12.27
2022-10-22T05:39:31.998Z,10.73
2022-10-22T05:44:26.288Z,11.02
2022-10-22T05:46:55.977Z,11.38
2022-10-22T05:49:23.074Z,10.15
2022-10-22T05:51:53.225Z,14.00
2022-10-22T05:54:22.477Z,11.18
2022-10-22T05:56:57.789Z,15.02
2022-10-22T05:59:24.869Z,10.02
2022-10-22T06:01:53.293Z,9.68
2022-10-22T06:04:23.361Z,10.43
2022-10-22T06:06:53.426Z,10.32
2022-10-22T06:12:09.074Z,10.35
2022-10-22T06:14:40.733Z,12.32
2022-10-22T06:17:08.500Z,9.27
2022-10-22T06:19:35.743Z,8.43
2022-10-22T06:22:06.317Z,12.30
2022-10-22T06:24:33.421Z,13.35
2022-10-22T06:27:03.364Z,13.27
2022-10-22T06:29:31.428Z,12.55
2022-10-22T06:32:07.662Z,14.05
2022-10-22T06:34:39.141Z,13.32
2022-10-22T06:37:07.418Z,10.40
2022-10-22T06:39:34.564Z,9.75
2022-10-22T06:42:01.750Z,12.27
2022-10-22T06:44:29.355Z,10.48
2022-10-22T06:46:56.517Z,16.00
2022-10-22T06:49:23.793Z,14.52
2022-10-22T06:51:53.139Z,11.88
2022-10-22T06:54:22.544Z,11.73
2022-10-22T06:56:51.343Z,11.75
2022-10-22T06:59:18.525Z,11.52
2022-10-22T07:01:45.768Z,13.80
2022-10-22T07:04:16.005Z,11.15
2022-10-22T07:06:43.291Z,9.25
2022-10-22T07:09:13.061Z,10.85
2022-10-22T07:11:47.700Z,13.45
2022-10-22T07:14:15.742Z,11.77
2022-10-22T07:16:43.367Z,15.13
2022-10-22T07:19:10.693Z,10.90
2022-10-22T07:21:38.150Z,13.50
2022-10-22T07:24:05.633Z,12.45
2022-10-22T07:26:33.899Z,11.65
2022-10-22T07:29:01.744Z,12.23
2022-10-22T07:31:30.277Z,20.85
2022-10-22T07:33:58.457Z,9.10
2022-10-22T07:36:28.754Z,11.77
2022-10-22T07:39:00.854Z,10.85
2022-10-22T07:41:32.130Z,16.15
2022-10-22T07:44:00.186Z,12.63
2022-10-22T07:46:27.685Z,11.77
2022-10-22T07:48:57.970Z,13.00
2022-10-22T07:51:25.145Z,12.48
2022-10-22T07:53:52.603Z,11.35
2022-10-22T07:56:19.809Z,12.52
2022-10-22T07:58:46.904Z,12.68
2022-10-22T08:01:14.069Z,12.45
2022-10-22T08:03:42.716Z,15.00
2022-10-22T08:06:13.754Z,12.27
2022-10-22T08:08:42.409Z,17.40
2022-10-22T08:11:10.911Z,11.18
2022-10-22T08:13:44.899Z,13.00
2022-10-22T08:16:13.000Z,13.52
2022-10-22T08:18:43.989Z,17.33
2022-10-22T08:21:14.713Z,16.02
2022-10-22T08:23:41.872Z,18.02
2022-10-22T08:26:28.526Z,12.43
2022-10-22T08:28:56.083Z,14.38
2022-10-22T08:31:23.684Z,16.27
2022-10-22T08:33:53.681Z,15.32
2022-10-22T08:36:20.874Z,14.00
2022-10-22T08:38:51.425Z,11.65
2022-10-22T08:41:25.582Z,14.18
2022-10-22T08:44:24.438Z,22.65
2022-10-22T08:47:40.149Z,13.88
2022-10-22T08:50:15.108Z,13.05
2022-10-22T08:52:49.334Z,13.13
2022-10-22T08:55:17.709Z,9.82
2022-10-22T08:58:03.509Z,11.43
2022-10-22T09:00:38.538Z,9.85
2022-10-22T09:03:43.000Z,12.55
2022-10-22T09:06:16.949Z,11.55
2022-10-22T09:08:48.370Z,10.15
2022-10-22T09:11:38.034Z,10.15
2022-10-22T09:14:16.825Z,9.60
2022-10-22T09:17:19.578Z,16.63
2022-10-22T09:20:03.703Z,9.90
2022-10-22T09:22:53.125Z,12.15
2022-10-22T09:25:26.761Z,11.25
2022-10-22T09:27:59.730Z,9.10
2022-10-22T09:30:34.811Z,8.18
2022-10-22T09:33:07.740Z,9.70
2022-10-22T09:35:44.351Z,13.57
2022-10-22T09:38:17.213Z,15.05
2022-10-22T09:40:54.670Z,12.73
2022-10-22T09:43:23.528Z,11.63
2022-10-22T09:46:00.473Z,10.82
2022-10-22T09:48:39.571Z,9.35
2022-10-22T09:51:36.334Z,8.60
2022-10-22T09:54:25.535Z,11.20
2022-10-22T09:57:22.223Z,8.95
2022-10-22T09:59:58.060Z,8.55
2022-10-22T10:02:44.433Z,11.15
2022-10-22T10:05:25.086Z,8.93
2022-10-22T10:08:01.906Z,11.40
2022-10-22T10:10:49.432Z,11.13
2022-10-22T10:14:01.539Z,13.13
2022-10-22T10:17:06.433Z,9.82
2022-10-22T10:20:15.307Z,9.63
2022-10-22T10:23:01.354Z,10.15
2022-10-22T10:25:54.435Z,11.45
2022-10-22T10:28:55.206Z,11.65
2022-10-22T10:31:55.572Z,11.40
2022-10-22T10:35:16.578Z,9.05
2022-10-22T10:38:25.926Z,7.75
2022-10-22T10:40:59.826Z,14.05
2022-10-22T10:44:20.292Z,20.20
2022-10-22T10:47:07.517Z,13.35
2022-10-22T10:49:36.759Z,10.48
2022-10-22T10:52:21.650Z,9.70
2022-10-22T10:55:03.904Z,9.90
2022-10-22T10:58:02.079Z,12.02
2022-10-22T11:00:41.395Z,13.85
2022-10-22T11:03:50.470Z,12.98
2022-10-22T11:06:25.385Z,9.35
2022-10-22T11:09:17.890Z,7.82
2022-10-22T11:11:55.482Z,11.73
2022-10-22T11:15:24.198Z,8.35
2022-10-22T11:17:56.711Z,7.72
2022-10-22T11:20:36.973Z,9.57
2022-10-22T11:23:21.519Z,9.15
2022-10-22T11:25:53.178Z,11.95
2022-10-22T11:28:29.003Z,11.80
2022-10-22T11:31:17.501Z,10.55
2022-10-22T11:34:21.729Z,13.77
2022-10-22T11:36:58.303Z,7.60
2022-10-22T11:39:45.770Z,9.73
2022-10-22T11:42:32.650Z,9.35
2022-10-22T11:45:09.052Z,8.35
2022-10-22T11:48:15.496Z,14.80
2022-10-22T11:50:53.126Z,10.80
2022-10-22T11:53:37.569Z,11.05
2022-10-22T11:56:10.360Z,9.98
2022-10-22T11:58:43.975Z,10.68
2022-10-22T12:01:11.224Z,10.40
2022-10-22T12:04:00.016Z,10.10
2022-10-22T12:07:12.511Z,12.82
2022-10-22T12:09:56.257Z,9.45
2022-10-22T12:12:51.174Z,10.38
2022-10-22T12:15:52.461Z,11.65
2022-10-22T12:18:53.759Z,12.30
2022-10-22T12:21:31.047Z,9.65
2022-10-22T12:24:07.860Z,11.07
2022-10-22T12:26:38.370Z,10.38
2022-10-22T12:29:22.393Z,21.17
2022-10-22T12:32:09.230Z,9.82
2022-10-22T12:35:02.076Z,8.85
2022-10-22T12:37:46.002Z,12.80
2022-10-22T12:40:46.031Z,10.52
2022-10-22T12:43:37.792Z,11.30
2022-10-22T12:46:19.828Z,12.27
2022-10-22T12:49:00.613Z,14.90
2022-10-22T12:51:43.915Z,13.63
2022-10-22T12:54:35.884Z,12.82
2022-10-22T12:57:11.225Z,10.68
2022-10-22T13:02:39.232Z,8.57
2022-10-22T13:05:31.188Z,12.95
2022-10-22T13:08:29.415Z,12.93
2022-10-22T13:11:12.424Z,10.05
2022-10-22T13:13:39.399Z,12.00
2022-10-22T13:16:26.026Z,11.77
2022-10-22T13:18:56.521Z,11.60
2022-10-22T13:21:50.581Z,9.88
2022-10-22T13:24:24.936Z,9.40
2022-10-22T13:26:57.621Z,11.68
2022-10-22T13:29:26.248Z,12.77
2022-10-22T13:31:54.331Z,9.13
2022-10-22T13:34:25.754Z,14.32
2022-10-22T13:36:57.827Z,12.02
2022-10-22T13:39:25.760Z,15.35
2022-10-22T13:41:52.910Z,9.93
2022-10-22T13:44:20.810Z,12.55
2022-10-22T13:46:49.427Z,9.43
2022-10-22T13:49:27.224Z,13.70
2022-10-22T13:51:54.360Z,9.65
2022-10-22T13:54:24.983Z,11.63
2022-10-22T13:56:54.323Z,11.65
2022-10-22T13:59:24.149Z,11.70
2022-10-22T14:01:52.284Z,12.07
2022-10-22T14:04:21.975Z,13.40
2022-10-22T14:06:49.634Z,9.95
2022-10-22T14:09:24.972Z,10.07
2022-10-22T14:11:52.235Z,17.98
2022-10-22T14:14:19.365Z,10.15
2022-10-22T14:16:51.318Z,10.52
2022-10-22T14:19:18.861Z,13.05
2022-10-22T14:21:49.421Z,13.45
2022-10-22T14:24:19.503Z,9.88
2022-10-22T14:26:49.534Z,9.13
2022-10-22T14:29:16.752Z,10.77
2022-10-22T14:31:47.314Z,9.23
2022-10-22T14:34:16.950Z,9.55
2022-10-22T14:36:44.665Z,9.02
2022-10-22T14:39:16.177Z,8.07
2022-10-22T14:41:43.772Z,9.57
2022-10-22T14:44:14.587Z,12.75
2022-10-22T14:46:44.479Z,12.50
2022-10-22T14:49:12.261Z,10.95
2022-10-22T14:51:42.141Z,10.60
2022-10-22T14:54:09.184Z,11.73
2022-10-22T14:56:43.595Z,9.52
2022-10-22T14:59:13.560Z,12.57
2022-10-22T15:01:44.614Z,13.60
2022-10-22T15:04:11.935Z,14.27
2022-10-22T15:06:42.885Z,16.35
2022-10-22T15:09:13.293Z,16.52
2022-10-22T15:11:41.260Z,11.68
2022-10-22T15:14:11.703Z,11.18
2022-10-22T15:16:39.584Z,13.73
2022-10-22T15:19:07.721Z,16.63
2022-10-22T15:21:37.244Z,12.48
2022-10-22T15:24:07.034Z,13.95
2022-10-22T15:26:34.567Z,12.63
2022-10-22T15:29:04.939Z,12.15
2022-10-22T15:31:57.899Z,11.30
2022-10-22T15:34:33.901Z,14.82
2022-10-22T15:37:05.898Z,13.27
2022-10-22T15:39:36.195Z,14.45
2022-10-22T15:42:07.118Z,14.63
2022-10-22T15:44:34.949Z,14.82
2022-10-22T15:47:06.616Z,16.83
2022-10-22T15:49:38.537Z,13.93
2022-10-22T15:52:07.191Z,17.98
2022-10-22T15:54:37.728Z,14.27
2022-10-22T15:57:13.995Z,12.73
2022-10-22T15:59:45.370Z,18.45
2022-10-22T16:02:26.931Z,14.15
2022-10-22T16:05:07.907Z,16.30
2022-10-22T16:08:04.424Z,16.58
2022-10-22T16:10:47.741Z,15.98
2022-10-22T16:13:25.801Z,15.38
2022-10-22T16:15:57.995Z,15.70
2022-10-22T16:18:32.579Z,13.60
2022-10-22T16:21:09.835Z,15.95
2022-10-22T16:23:45.580Z,11.80
2022-10-22T16:26:19.146Z,15.80
2022-10-22T16:28:52.572Z,13.88
2022-10-22T16:33:59.781Z,12.98
2022-10-22T16:36:32.961Z,14.50
2022-10-22T16:39:06.579Z,18.08
2022-10-22T16:41:38.766Z,16.38
2022-10-22T16:44:19.224Z,14.98
2022-10-22T16:46:52.947Z,14.40
2022-10-22T16:49:27.136Z,14.32
2022-10-22T16:51:54.932Z,17.27
2022-10-22T16:54:25.636Z,19.05
2022-10-22T16:56:57.163Z,16.08
2022-10-22T16:59:28.749Z,15.60
2022-10-22T17:02:01.891Z,15.43
2022-10-22T17:04:44.653Z,14.38
2022-10-22T17:07:28.764Z,18.60
2022-10-22T17:10:04.256Z,18.40
2022-10-22T17:12:43.107Z,21.13
2022-10-22T17:15:29.154Z,20.60
2022-10-22T17:18:09.225Z,15.80
2022-10-22T17:21:00.815Z,13.73
2022-10-22T17:24:28.044Z,16.38
2022-10-22T17:27:21.233Z,12.20
2022-10-22T17:30:24.939Z,15.27
2022-10-22T17:33:05.055Z,16.48
2022-10-22T17:35:52.804Z,16.73
2022-10-22T17:38:25.272Z,15.30
2022-10-22T17:41:07.493Z,16.38
2022-10-22T17:43:41.539Z,14.85
2022-10-22T17:46:18.190Z,15.77
2022-10-22T17:48:51.156Z,15.02
2022-10-22T17:51:26.097Z,13.63
2022-10-22T17:53:59.862Z,15.43
2022-10-22T17:57:06.254Z,17.08
2022-10-22T17:59:52.177Z,16.05
2022-10-22T18:02:24.014Z,17.42
2022-10-22T18:05:22.808Z,14.85
2022-10-22T18:08:06.969Z,14.48
2022-10-22T18:10:48.668Z,14.60
2022-10-22T18:13:22.378Z,14.68
2022-10-22T18:16:03.107Z,19.02
2022-10-22T18:18:33.370Z,15.05
2022-10-22T18:21:18.524Z,22.38
2022-10-22T18:23:58.149Z,15.40
2022-10-22T18:26:35.856Z,16.50
2022-10-22T18:29:16.182Z,17.67
2022-10-22T18:32:15.084Z,16.00
2022-10-22T18:37:44.868Z,12.90
2022-10-22T18:40:20.688Z,19.08
2022-10-22T18:43:05.925Z,23.23
2022-10-22T18:45:41.574Z,15.13
2022-10-22T18:48:18.863Z,17.98
2022-10-22T18:51:01.792Z,19.52
2022-10-22T18:54:23.926Z,16.20
2022-10-22T18:57:03.023Z,19.52
2022-10-22T18:59:47.862Z,20.63
2022-10-22T19:02:34.045Z,21.88
2022-10-22T19:05:18.517Z,18.60
2022-10-22T19:11:21.316Z,17.08
2022-10-22T19:14:15.453Z,19.40
2022-10-22T19:16:51.353Z,15.85
2022-10-22T19:19:58.742Z,16.67
2022-10-22T19:22:44.124Z,17.85
2022-10-22T19:25:17.551Z,15.32
2022-10-22T19:27:53.412Z,15.85
2022-10-22T19:30:28.564Z,18.20
2022-10-22T19:32:59.137Z,17.23
2022-10-22T19:35:42.368Z,20.00
2022-10-22T19:38:20.171Z,19.25
2022-10-22T19:41:17.433Z,16.67
2022-10-22T19:43:51.957Z,15.55
2022-10-22T19:46:42.025Z,18.25
2022-10-22T19:49:15.433Z,18.63
2022-10-22T19:51:47.570Z,20.27
2022-10-22T19:54:23.487Z,19.10
2022-10-22T19:57:17.515Z,19.35
2022-10-22T19:59:58.758Z,17.52
2022-10-22T20:02:32.231Z,18.67
2022-10-22T20:07:44.996Z,17.80
2022-10-22T20:10:21.982Z,15.65
2022-10-22T20:12:58.380Z,17.80
2022-10-22T20:15:36.489Z,17.52
2022-10-22T20:18:08.233Z,16.30
2022-10-22T20:21:01.814Z,18.23
2022-10-22T20:23:35.272Z,17.85
2022-10-22T20:28:57.875Z,17.73
2022-10-22T20:31:34.244Z,20.15
2022-10-22T20:34:06.304Z,20.02
2022-10-22T20:36:33.984Z,14.70
2022-10-22T20:39:08.670Z,16.23
2022-10-22T20:41:49.815Z,17.27
2022-10-22T20:44:42.231Z,17.27
2022-10-22T20:49:59.318Z,17.90
2022-10-22T20:55:05.233Z,20.38
2022-10-22T20:57:43.430Z,18.40
2022-10-22T21:00:23.169Z,15.80
2022-10-22T21:03:05.538Z,16.17
2022-10-22T21:05:54.394Z,17.85
2022-10-22T21:08:32.055Z,17.60
2022-10-22T21:11:09.713Z,17.63
2022-10-22T21:13:51.048Z,21.27
2022-10-22T21:19:13.805Z,18.77
2022-10-22T21:21:52.980Z,13.48
2022-10-22T21:24:28.861Z,17.58
2022-10-22T21:27:07.718Z,19.17
2022-10-22T21:29:40.393Z,14.60
2022-10-22T21:32:17.849Z,13.35
2022-10-22T21:34:52.717Z,16.67
2022-10-22T21:37:32.135Z,18.00
2022-10-22T21:40:04.995Z,19.50
2022-10-22T21:42:49.590Z,15.95
2022-10-22T21:45:28.200Z,15.40
2022-10-22T21:47:57.069Z,18.75
2022-10-22T21:50:37.483Z,18.45
2022-10-22T21:53:16.076Z,13.65
2022-10-22T21:55:55.407Z,16.73
2022-10-22T21:58:26.017Z,15.20
2022-10-22T22:01:06.016Z,18.25
2022-10-22T22:03:52.431Z,14.57
2022-10-22T22:06:33.624Z,13.80
2022-10-22T22:09:21.609Z,16.95
2022-10-22T22:12:10.474Z,19.05
2022-10-22T22:14:56.835Z,15.18
2022-10-22T22:17:27.383Z,15.13
2022-10-22T22:19:57.221Z,16.45
2022-10-22T22:22:34.464Z,16.92
2022-10-22T22:25:03.990Z,18.48
2022-10-22T22:27:44.983Z,17.23
2022-10-22T22:30:13.591Z,17.58
2022-10-22T22:32:48.991Z,16.73
2022-10-22T22:35:20.530Z,17.55
2022-10-22T22:37:54.198Z,23.67
2022-10-22T22:40:31.510Z,16.67
2022-10-22T22:43:10.920Z,20.92
2022-10-22T22:45:44.566Z,15.85
2022-10-22T22:48:20.619Z,16.13
2022-10-22T22:50:53.630Z,22.98
2022-10-22T22:53:30.123Z,15.82
2022-10-22T22:56:37.307Z,17.80
2022-10-22T22:59:13.919Z,18.40
2022-10-22T23:01:50.449Z,18.92
2022-10-22T23:04:28.460Z,14.45
2022-10-22T23:07:12.676Z,18.42
2022-10-22T23:09:42.682Z,15.55
2022-10-22T23:12:18.506Z,16.60
2022-10-22T23:14:48.385Z,15.77
2022-10-22T23:17:21.896Z,20.30
2022-10-22T23:20:01.618Z,19.70
2022-10-22T23:25:03.507Z,18.38
2022-10-22T23:27:33.960Z,16.38
2022-10-22T23:30:08.071Z,17.77
2022-10-22T23:32:43.516Z,19.02
2022-10-22T23:35:11.204Z,15.77
2022-10-22T23:37:42.975Z,16.92
2022-10-22T23:40:12.540Z,16.20
2022-10-22T23:42:51.427Z,15.27
2022-10-22T23:45:21.490Z,17.45
2022-10-22T23:47:59.070Z,19.48
2022-10-22T23:50:29.028Z,20.05
2022-10-22T23:53:00.479Z,18.83
2022-10-22T23:55:28.048Z,15.82
2022-10-22T23:58:03.197Z,15.77
